Time;durP1;ratioP1;P1;durP2;ratioP2;P2;SDS_P1;SDS_P2;PMS_P1;PMS_P2;Temp;Humidity;BMP_temperature;BMP_pressure;BME280_temperature;BME280_humidity;BME280_pressure;Samples;Min_cycle;Max_cycle;Signal;HPM_P1;HPM_P2
2022/02/21 00:00:40;;;;;;;23.98;4.85;;;;;;;6.24;96.69;99671.03;5053698;28;20104;-78
2022/02/21 00:03:06;;;;;;;15.57;2.97;;;;;;;6.28;95.60;99698.06;5039392;28;20029;-78
2022/02/21 00:05:33;;;;;;;13.75;3.08;;;;;;;6.22;94.76;99675.34;5051993;28;20035;-77
2022/02/21 00:07:59;;;;;;;18.88;3.55;;;;;;;6.22;94.69;99683.19;5067486;28;20040;-78
2022/02/21 00:10:24;;;;;;;17.65;2.50;;;;;;;6.14;95.88;99687.41;5064548;28;20066;-78
2022/02/21 00:12:50;;;;;;;21.02;2.70;;;;;;;6.19;93.57;99690.97;5046507;28;20035;-79
2022/02/21 00:15:18;;;;;;;17.23;3.28;;;;;;;6.21;93.11;99707.53;5059977;28;20475;-77
2022/02/21 00:17:45;;;;;;;18.98;2.65;;;;;;;6.13;92.92;99730.94;5064179;28;20033;-78
2022/02/21 00:20:11;;;;;;;18.17;2.65;;;;;;;6.07;91.76;99739.53;5057426;28;20021;-78
2022/02/21 00:22:36;;;;;;;23.65;3.38;;;;;;;6.06;91.54;99737.78;5074279;28;20029;-77
2022/02/21 00:25:02;;;;;;;13.77;3.25;;;;;;;6.02;91.02;99743.81;5036314;28;20044;-78
2022/02/21 00:27:28;;;;;;;14.75;2.70;;;;;;;5.96;90.70;99748.88;5046964;28;20025;-78
2022/02/21 00:29:53;;;;;;;15.50;2.50;;;;;;;6.01;91.12;99768.16;5048988;28;20029;-79
2022/02/21 00:32:18;;;;;;;11.43;2.78;;;;;;;5.98;91.99;99751.56;5069081;28;20024;-78
2022/02/21 00:34:44;;;;;;;20.33;2.78;;;;;;;6.02;91.63;99755.97;5052227;28;20028;-78
2022/02/21 00:37:09;;;;;;;16.40;2.60;;;;;;;6.00;93.41;99761.16;5058647;28;20046;-79
2022/02/21 00:39:34;;;;;;;23.17;3.17;;;;;;;6.00;92.42;99770.75;5061789;28;20086;-79
2022/02/21 00:42:00;;;;;;;11.82;2.22;;;;;;;5.99;91.60;99785.50;5049393;28;20020;-78
2022/02/21 00:44:25;;;;;;;18.23;2.85;;;;;;;5.97;92.20;99794.13;5055712;28;20024;-78
2022/02/21 00:46:51;;;;;;;15.40;3.00;;;;;;;5.97;91.39;99781.09;5058727;28;20158;-78
2022/02/21 00:49:17;;;;;;;15.07;2.00;;;;;;;5.93;88.82;99772.34;5063482;28;20080;-77
2022/02/21 00:51:42;;;;;;;15.70;2.63;;;;;;;5.89;88.83;99801.84;5042877;28;20032;-77
2022/02/21 00:54:07;;;;;;;15.23;2.03;;;;;;;5.84;87.73;99790.44;5060817;28;20369;-77
2022/02/21 00:56:33;;;;;;;14.10;2.00;;;;;;;5.83;87.80;99794.78;5058407;28;20555;-78
2022/02/21 00:58:58;;;;;;;14.43;1.85;;;;;;;5.84;88.00;99795.66;5065803;28;20103;-78
2022/02/21 01:01:23;;;;;;;12.48;2.72;;;;;;;5.85;89.82;99781.75;5042375;28;20036;-77
2022/02/21 01:03:49;;;;;;;20.30;2.70;;;;;;;5.87;90.20;99795.72;5051176;28;20506;-78
2022/02/21 01:06:17;;;;;;;17.40;2.13;;;;;;;5.85;91.11;99833.97;5051596;28;20032;-79
2022/02/21 01:08:44;;;;;;;25.73;3.17;;;;;;;5.86;87.99;99820.03;5059353;28;20029;-77
2022/02/21 01:11:10;;;;;;;20.42;2.50;;;;;;;5.89;83.36;99809.69;5044338;28;20044;-78
2022/02/21 01:13:35;;;;;;;17.73;2.47;;;;;;;5.86;84.83;99814.81;5044249;28;20064;-77
2022/02/21 01:16:01;;;;;;;13.82;2.40;;;;;;;5.88;84.59;99818.38;5063762;28;20561;-76
2022/02/21 01:18:26;;;;;;;18.05;3.22;;;;;;;5.83;86.00;99820.00;5072266;28;20039;-76
2022/02/21 01:20:51;;;;;;;19.52;2.67;;;;;;;5.83;84.54;99836.56;5061861;28;20026;-76
2022/02/21 01:23:17;;;;;;;13.27;2.20;;;;;;;5.83;86.67;99843.50;5043702;28;20082;-77
2022/02/21 01:25:42;;;;;;;15.18;3.15;;;;;;;5.81;87.03;99835.63;5050000;28;20027;-77
2022/02/21 01:28:08;;;;;;;19.60;2.78;;;;;;;5.82;86.79;99833.91;5069880;28;20032;-77
2022/02/21 01:30:33;;;;;;;18.25;2.83;;;;;;;5.83;87.42;99833.94;5056420;28;20116;-77
2022/02/21 01:32:58;;;;;;;29.88;3.25;;;;;;;5.84;87.01;99845.25;5076112;28;20457;-77
2022/02/21 01:35:24;;;;;;;17.58;2.92;;;;;;;5.79;85.41;99854.72;5065814;28;20045;-78
2022/02/21 01:37:50;;;;;;;17.30;2.55;;;;;;;5.81;84.69;99860.88;5048234;28;20354;-77
2022/02/21 01:40:16;;;;;;;11.77;1.98;;;;;;;5.77;85.00;99846.00;5047040;28;20112;-77
2022/02/21 01:42:42;;;;;;;12.98;2.20;;;;;;;5.74;86.67;99858.13;5051221;28;20021;-77
2022/02/21 01:45:08;;;;;;;17.30;2.63;;;;;;;5.71;86.04;99849.34;5062232;28;20044;-77
2022/02/21 01:47:34;;;;;;;14.85;2.00;;;;;;;5.72;83.95;99878.13;5046370;28;20044;-78
2022/02/21 01:49:59;;;;;;;12.77;2.08;;;;;;;5.67;85.46;99871.91;5035929;28;20077;-76
2022/02/21 01:52:25;;;;;;;13.68;2.53;;;;;;;5.64;82.63;99865.75;5067615;28;20088;-77
2022/02/21 01:54:50;;;;;;;14.52;2.42;;;;;;;5.63;82.45;99851.81;5059609;28;20029;-77
2022/02/21 01:57:17;;;;;;;17.13;2.53;;;;;;;5.74;78.17;99858.13;5053011;28;20052;-77
2022/02/21 01:59:42;;;;;;;23.65;2.30;;;;;;;5.67;80.47;99853.63;5040861;28;20029;-78
2022/02/21 02:02:09;;;;;;;9.68;2.65;;;;;;;5.65;80.15;99851.84;5066718;28;20127;-77
2022/02/21 02:04:36;;;;;;;17.27;2.63;;;;;;;5.71;79.51;99862.41;5045006;28;20115;-77
2022/02/21 02:07:04;;;;;;;20.27;2.88;;;;;;;5.68;79.98;99893.66;5037304;28;20035;-77
2022/02/21 02:09:29;;;;;;;21.70;2.08;;;;;;;5.72;77.34;99866.78;5069212;28;20028;-78
2022/02/21 02:11:55;;;;;;;14.23;1.70;;;;;;;5.74;78.17;99870.31;5057753;28;20078;-77
2022/02/21 02:14:34;;;;;;;10.80;2.38;;;;;;;5.68;79.72;99852.81;5067953;28;20031;-77
2022/02/21 02:17:12;;;;;;;12.30;2.50;;;;;;;5.70;78.31;99853.69;5054630;28;20175;-77
2022/02/21 02:19:39;;;;;;;7.30;1.80;;;;;;;5.70;79.16;99866.75;5066196;28;20108;-76
2022/02/21 02:22:16;;;;;;;20.67;2.97;;;;;;;5.73;78.72;99860.72;5047460;28;20054;-76
2022/02/21 02:24:43;;;;;;;20.70;2.55;;;;;;;5.72;78.84;99872.00;5051143;28;20028;-76
2022/02/21 02:27:09;;;;;;;14.60;2.00;;;;;;;5.76;78.87;99870.34;5054825;28;20074;-76
2022/02/21 02:29:36;;;;;;;17.13;2.60;;;;;;;5.76;78.63;99880.78;5055628;28;20433;-77
2022/02/21 02:32:02;;;;;;;15.25;2.65;;;;;;;5.74;79.05;99860.75;5065774;28;20460;-76
2022/02/21 02:34:27;;;;;;;15.13;2.38;;;;;;;5.75;78.66;99874.66;5066263;28;20024;-77
2022/02/21 02:36:53;;;;;;;11.82;1.92;;;;;;;5.76;76.95;99859.91;5058039;28;21389;-76
2022/02/21 02:39:18;;;;;;;15.25;2.50;;;;;;;5.71;77.20;99873.72;5051859;28;20047;-77
2022/02/21 02:41:46;;;;;;;15.40;2.42;;;;;;;5.65;77.71;99873.59;5061709;28;20388;-77
2022/02/21 02:44:12;;;;;;;7.07;2.05;;;;;;;5.64;77.46;99864.00;5043026;28;20033;-77
2022/02/21 02:46:37;;;;;;;14.05;2.17;;;;;;;5.61;77.75;99892.66;5064461;28;20025;-76
2022/02/21 02:49:03;;;;;;;12.75;3.50;;;;;;;5.65;76.78;99891.88;5041789;28;20369;-77
2022/02/21 02:51:29;;;;;;;14.05;2.35;;;;;;;5.59;77.72;99886.53;5063445;28;20078;-75
2022/02/21 02:53:54;;;;;;;12.63;2.22;;;;;;;5.58;76.84;99897.81;5054742;28;20052;-76
2022/02/21 02:56:19;;;;;;;19.63;2.67;;;;;;;5.58;77.55;99898.69;5056050;28;20031;-76
2022/02/21 02:58:45;;;;;;;16.75;3.75;;;;;;;5.55;78.06;99876.88;5046373;28;20119;-76
2022/02/21 03:01:10;;;;;;;10.93;2.55;;;;;;;5.52;77.93;99882.00;5053629;28;20108;-76
2022/02/21 03:03:36;;;;;;;11.48;2.40;;;;;;;5.55;77.70;99903.84;5041787;28;20033;-76
2022/02/21 03:06:01;;;;;;;15.93;2.97;;;;;;;5.56;78.94;99903.00;5060982;28;20044;-77
2022/02/21 03:08:26;;;;;;;19.58;2.22;;;;;;;5.52;76.89;99888.13;5050297;28;20510;-76
2022/02/21 03:10:52;;;;;;;18.75;2.65;;;;;;;5.50;77.75;99888.94;5059082;28;20448;-76
2022/02/21 03:13:17;;;;;;;15.60;2.65;;;;;;;5.46;78.70;99889.72;5044056;28;20016;-78
2022/02/21 03:15:42;;;;;;;17.40;2.60;;;;;;;5.42;79.79;99880.06;5067964;28;20024;-77
2022/02/21 03:18:09;;;;;;;14.85;2.53;;;;;;;5.39;80.22;99886.97;5057881;28;20060;-77
2022/02/21 03:20:34;;;;;;;19.17;3.00;;;;;;;5.36;79.53;99910.38;5060607;28;20083;-77
2022/02/21 03:23:00;;;;;;;17.27;2.40;;;;;;;5.37;79.31;99899.09;5057362;28;20032;-76
2022/02/21 03:25:25;;;;;;;17.60;2.58;;;;;;;5.34;79.90;99891.19;5037523;28;20047;-77
2022/02/21 03:27:51;;;;;;;16.42;2.75;;;;;;;5.33;79.56;99891.16;5055180;28;20472;-77
2022/02/21 03:30:16;;;;;;;14.57;2.58;;;;;;;5.38;77.32;99892.16;5055239;28;20103;-76
2022/02/21 03:32:42;;;;;;;16.00;2.38;;;;;;;5.42;75.25;99886.16;5047279;28;20135;-77
2022/02/21 03:35:07;;;;;;;18.63;2.92;;;;;;;5.42;74.93;99904.41;5063742;28;20120;-76
2022/02/21 03:37:35;;;;;;;15.30;3.17;;;;;;;5.40;76.44;99888.72;5044600;28;20039;-76
2022/02/21 03:40:01;;;;;;;11.52;2.45;;;;;;;5.41;76.48;99894.81;5045264;28;20032;-76
2022/02/21 03:42:26;;;;;;;10.48;2.03;;;;;;;5.37;77.02;99888.69;5036938;28;20029;-76
2022/02/21 03:44:51;;;;;;;17.50;2.58;;;;;;;5.35;76.50;99889.50;5037754;28;20025;-76
2022/02/21 03:47:17;;;;;;;13.15;2.55;;;;;;;5.36;76.67;99892.13;5051712;28;20451;-76
2022/02/21 03:49:42;;;;;;;11.27;2.22;;;;;;;5.31;77.13;99891.13;5056757;28;20039;-75
2022/02/21 03:52:07;;;;;;;24.23;2.60;;;;;;;5.37;77.46;99878.25;5065364;28;20101;-77
2022/02/21 03:54:33;;;;;;;15.98;2.00;;;;;;;5.37;77.17;99882.56;5051092;28;20043;-76
2022/02/21 03:56:58;;;;;;;21.10;2.55;;;;;;;5.38;79.42;99887.81;5056299;28;20032;-76
2022/02/21 03:59:23;;;;;;;13.88;2.65;;;;;;;5.33;79.17;99879.03;5050375;28;20086;-76
2022/02/21 04:01:49;;;;;;;14.60;2.72;;;;;;;5.33;79.67;99885.94;5047787;28;20098;-76
2022/02/21 04:04:14;;;;;;;16.83;2.97;;;;;;;5.32;79.84;99892.91;5050595;28;20119;-76
2022/02/21 04:06:41;;;;;;;16.50;2.15;;;;;;;5.21;80.54;99882.22;5046099;28;20025;-76
2022/02/21 04:09:06;;;;;;;12.18;2.58;;;;;;;5.21;80.12;99883.97;5059417;28;20036;-76
2022/02/21 04:11:32;;;;;;;16.88;2.08;;;;;;;5.22;80.34;99890.91;5050054;28;20043;-77
2022/02/21 04:13:57;;;;;;;8.10;1.83;;;;;;;5.21;80.06;99895.28;5059007;28;20036;-77
2022/02/21 04:16:23;;;;;;;16.17;2.38;;;;;;;5.23;77.88;99882.25;5061715;28;20478;-76
2022/02/21 04:18:48;;;;;;;6.40;1.40;;;;;;;5.23;78.66;99884.88;5058644;28;20087;-76
2022/02/21 04:21:13;;;;;;;18.83;3.00;;;;;;;5.19;79.94;99888.25;5067327;28;20025;-77
2022/02/21 04:23:38;;;;;;;15.15;2.03;;;;;;;5.17;80.13;99906.47;5067137;28;20025;-76
2022/02/21 04:26:04;;;;;;;17.02;3.30;;;;;;;5.19;80.55;99883.03;5051461;28;20032;-75
2022/02/21 04:28:29;;;;;;;17.17;2.78;;;;;;;5.20;79.77;99908.28;5060914;28;20024;-76
2022/02/21 04:30:55;;;;;;;18.08;2.45;;;;;;;5.23;80.35;99900.50;5066223;28;20029;-75
2022/02/21 04:33:20;;;;;;;10.20;1.77;;;;;;;5.23;80.19;99890.09;5070404;28;20062;-76
2022/02/21 04:35:45;;;;;;;17.75;3.17;;;;;;;5.28;81.47;99888.47;5065435;28;20394;-75
2022/02/21 04:38:12;;;;;;;19.50;2.30;;;;;;;5.25;82.50;99898.84;5059628;28;20108;-77
2022/02/21 04:40:38;;;;;;;12.25;2.75;;;;;;;5.25;82.21;99904.06;5062870;28;20032;-77
2022/02/21 04:43:03;;;;;;;16.40;2.28;;;;;;;5.23;83.66;99897.91;5069524;28;20025;-77
2022/02/21 04:45:29;;;;;;;14.40;3.90;;;;;;;5.25;83.22;99898.84;5071219;28;20028;-76
2022/02/21 04:47:54;;;;;;;16.83;2.60;;;;;;;5.25;83.12;99898.84;5034177;28;20079;-76
2022/02/21 04:50:19;;;;;;;15.38;3.47;;;;;;;5.21;84.29;99907.44;5035296;28;20044;-76
2022/02/21 04:52:45;;;;;;;11.73;2.40;;;;;;;5.18;83.89;99907.34;5039129;28;20128;-76
2022/02/21 04:55:13;;;;;;;16.92;2.50;;;;;;;5.12;84.15;99873.31;5040054;28;20064;-76
2022/02/21 04:57:39;;;;;;;17.38;2.35;;;;;;;5.10;84.66;99888.94;5044792;28;20033;-77
2022/02/21 05:00:08;;;;;;;20.38;3.35;;;;;;;5.05;85.12;99885.34;5024565;28;20037;-75
2022/02/21 05:02:33;;;;;;;14.05;2.83;;;;;;;5.07;85.07;99874.09;5038735;28;20387;-76
2022/02/21 05:04:58;;;;;;;17.52;2.63;;;;;;;5.04;84.90;99874.00;5037239;28;20037;-76
2022/02/21 05:07:24;;;;;;;10.40;1.48;;;;;;;5.05;84.09;99875.78;5045611;28;20025;-76
2022/02/21 05:09:49;;;;;;;19.17;2.13;;;;;;;5.05;83.74;99867.94;5026128;28;20056;-77
2022/02/21 05:12:15;;;;;;;15.50;2.22;;;;;;;5.03;82.65;99866.16;5031793;28;20044;-76
2022/02/21 05:14:40;;;;;;;21.95;2.65;;;;;;;5.06;82.04;99845.38;5027253;28;20031;-76
2022/02/21 05:17:06;;;;;;;12.27;2.28;;;;;;;5.05;82.65;99852.31;5049369;28;20033;-76
2022/02/21 05:19:32;;;;;;;24.38;3.33;;;;;;;5.03;83.14;99851.41;5025354;28;20054;-76
2022/02/21 05:21:57;;;;;;;15.70;3.13;;;;;;;5.02;83.45;99856.59;5037741;28;20033;-76
2022/02/21 05:24:22;;;;;;;17.50;2.47;;;;;;;5.02;82.85;99867.03;5049558;28;20156;-76
2022/02/21 05:26:48;;;;;;;13.38;2.13;;;;;;;5.01;82.36;99852.22;5014546;28;20033;-76
2022/02/21 05:29:13;;;;;;;20.23;2.50;;;;;;;4.98;82.57;99852.13;5046275;28;20056;-76
2022/02/21 05:31:38;;;;;;;15.80;2.67;;;;;;;5.04;81.85;99847.06;5030502;28;20052;-77
2022/02/21 05:34:04;;;;;;;20.17;3.13;;;;;;;5.10;80.57;99828.97;5030680;28;20142;-77
2022/02/21 05:36:29;;;;;;;16.58;2.22;;;;;;;5.13;80.49;99838.53;5029037;28;20037;-75
2022/02/21 05:38:55;;;;;;;21.42;3.13;;;;;;;5.16;80.66;99836.03;5043658;28;20402;-76
2022/02/21 05:41:20;;;;;;;25.00;5.43;;;;;;;5.17;80.98;99824.75;5037954;28;20033;-76
2022/02/21 05:43:45;;;;;;;14.32;2.30;;;;;;;5.13;80.86;99831.63;5021248;28;20118;-75
2022/02/21 05:46:11;;;;;;;13.70;2.75;;;;;;;5.15;81.46;99813.41;5035669;28;20025;-76
2022/02/21 05:48:36;;;;;;;22.10;3.38;;;;;;;5.13;81.74;99834.22;5059977;28;20072;-76
2022/02/21 05:51:02;;;;;;;18.55;2.47;;;;;;;5.13;82.41;99821.19;5055640;28;20119;-76
2022/02/21 05:53:27;;;;;;;16.88;2.17;;;;;;;5.09;82.17;99810.66;5052504;28;20036;-77
2022/02/21 05:55:52;;;;;;;11.40;2.20;;;;;;;5.12;82.09;99813.34;5067435;28;20052;-76
2022/02/21 05:58:18;;;;;;;17.02;2.30;;;;;;;5.05;82.83;99815.81;5070440;28;20055;-76
2022/02/21 06:00:45;;;;;;;19.30;2.58;;;;;;;5.05;82.79;99828.84;5070074;28;20028;-76
2022/02/21 06:03:11;;;;;;;14.40;3.20;;;;;;;5.03;83.79;99816.63;5071975;28;20099;-76
2022/02/21 06:05:36;;;;;;;14.80;2.70;;;;;;;4.99;84.60;99812.19;5054874;28;20036;-76
2022/02/21 06:08:01;;;;;;;14.18;2.25;;;;;;;5.01;84.24;99806.16;5065307;28;20051;-76
2022/02/21 06:10:27;;;;;;;19.50;3.15;;;;;;;5.05;83.60;99797.56;5055522;28;20036;-75
2022/02/21 06:12:52;;;;;;;17.65;3.03;;;;;;;5.06;84.14;99824.53;5049290;28;20107;-75
2022/02/21 06:15:18;;;;;;;14.10;2.58;;;;;;;5.03;84.66;99814.00;5046834;28;20392;-76
2022/02/21 06:17:43;;;;;;;18.67;2.65;;;;;;;4.96;85.14;99802.56;5033173;28;20028;-76
2022/02/21 06:20:09;;;;;;;19.73;3.33;;;;;;;4.98;84.80;99811.31;5058385;28;20025;-74
2022/02/21 06:22:34;;;;;;;17.70;3.17;;;;;;;5.00;85.02;99808.72;5050943;28;20052;-76
2022/02/21 06:25:00;;;;;;;18.98;3.05;;;;;;;5.00;84.53;99801.78;5063693;28;20070;-75
2022/02/21 06:27:27;;;;;;;21.45;3.42;;;;;;;5.02;83.55;99828.78;5043461;28;20024;-78
2022/02/21 06:29:52;;;;;;;14.77;2.10;;;;;;;5.05;83.57;99818.41;5076121;28;20107;-78
2022/02/21 06:32:18;;;;;;;18.00;2.55;;;;;;;5.04;84.05;99800.13;5066460;28;20392;-77
2022/02/21 06:34:47;;;;;;;14.18;2.55;;;;;;;5.03;84.85;99812.28;5066170;28;20068;-78
2022/02/21 06:37:14;;;;;;;14.80;2.05;;;;;;;5.00;84.36;99799.16;5054870;28;20028;-78
2022/02/21 06:39:39;;;;;;;15.52;3.22;;;;;;;5.03;83.72;99793.16;5044500;28;20044;-77
2022/02/21 06:42:05;;;;;;;29.00;3.55;;;;;;;5.07;84.58;99801.09;5052719;28;20020;-77
2022/02/21 06:44:30;;;;;;;12.07;2.42;;;;;;;5.11;84.15;99791.59;5054242;28;20033;-77
2022/02/21 06:46:55;;;;;;;24.60;2.72;;;;;;;5.09;85.48;99792.41;5068361;28;20029;-79
2022/02/21 06:49:21;;;;;;;15.30;2.75;;;;;;;5.12;85.37;99782.06;5056330;28;20077;-79
2022/02/21 06:51:46;;;;;;;18.55;2.85;;;;;;;5.24;83.84;99782.31;5061546;28;20028;-79
2022/02/21 06:54:12;;;;;;;15.30;3.03;;;;;;;5.26;85.08;99764.94;5064589;28;20049;-80
2022/02/21 06:56:38;;;;;;;19.13;3.70;;;;;;;5.23;85.06;99780.53;5066340;28;20106;-77
2022/02/21 06:59:03;;;;;;;26.60;2.97;;;;;;;5.24;85.54;99783.19;5042777;28;20070;-77
2022/02/21 07:01:28;;;;;;;13.52;3.05;;;;;;;5.29;85.03;99775.47;5049555;28;20444;-77
2022/02/21 07:03:54;;;;;;;15.15;2.53;;;;;;;5.30;84.19;99774.59;5035964;28;20036;-76
2022/02/21 07:06:20;;;;;;;21.65;2.70;;;;;;;5.36;83.72;99756.47;5045479;28;20052;-78
2022/02/21 07:08:46;;;;;;;17.80;2.97;;;;;;;5.43;83.47;99765.31;5064148;28;20025;-78
2022/02/21 07:11:11;;;;;;;17.92;3.65;;;;;;;5.40;84.45;99766.13;5038802;28;20086;-77
2022/02/21 07:13:37;;;;;;;15.15;3.90;;;;;;;5.48;83.20;99765.38;5054868;28;20491;-76
2022/02/21 07:16:03;;;;;;;14.15;2.97;;;;;;;5.52;82.86;99751.53;5061122;28;20032;-75
2022/02/21 07:18:29;;;;;;;17.08;2.75;;;;;;;5.56;83.03;99753.34;5054860;28;20070;-76
2022/02/21 07:20:54;;;;;;;12.50;2.63;;;;;;;5.57;82.99;99758.63;5054256;28;20033;-76
2022/02/21 07:23:20;;;;;;;19.40;2.50;;;;;;;5.64;82.03;99749.16;5041169;28;20021;-76
2022/02/21 07:25:45;;;;;;;14.95;2.47;;;;;;;5.76;81.85;99753.75;5069918;28;20048;-77
2022/02/21 07:28:10;;;;;;;15.82;3.00;;;;;;;5.85;82.18;99753.91;5055912;28;20021;-77
2022/02/21 07:30:36;;;;;;;18.38;2.28;;;;;;;5.91;81.33;99750.53;5060298;28;20509;-77
2022/02/21 07:33:01;;;;;;;15.68;2.17;;;;;;;5.94;81.35;99731.44;5060150;28;20423;-77
2022/02/21 07:35:27;;;;;;;13.68;2.80;;;;;;;5.94;81.68;99739.25;5058860;28;20119;-75
2022/02/21 07:37:53;;;;;;;21.63;2.95;;;;;;;5.92;82.18;99731.41;5059020;28;20499;-76
2022/02/21 07:40:18;;;;;;;18.73;2.60;;;;;;;5.94;82.41;99745.38;5060073;28;20421;-76
2022/02/21 07:42:53;;;;;;;14.90;2.67;;;;;;;5.95;83.45;99726.22;5062217;28;20039;-76
2022/02/21 07:45:23;;;;;;;9.98;1.90;;;;;;;5.95;83.03;99734.06;5062480;28;20103;-79
2022/02/21 07:47:57;;;;;;;30.15;3.03;;;;;;;5.81;85.63;99759.06;5042111;28;20071;-75
2022/02/21 07:50:23;;;;;;;;;;;;;;;5.58;88.81;99720.38;5023630;28;20021;-75
2022/02/21 07:52:49;;;;;;;24.67;3.53;;;;;;;5.40;91.08;99740.03;5050156;28;20443;-75
2022/02/21 07:55:16;;;;;;;22.10;3.22;;;;;;;5.24;94.17;99725.78;5044803;28;20115;-76
2022/02/21 07:57:42;;;;;;;21.27;3.35;;;;;;;5.19;94.16;99722.22;5047740;28;20033;-76
2022/02/21 08:00:10;;;;;;;23.92;4.10;;;;;;;5.09;96.16;99708.94;5046598;28;20025;-76
2022/02/21 08:02:36;;;;;;;16.13;2.63;;;;;;;5.02;97.19;99698.41;5043147;28;20468;-76
2022/02/21 08:05:02;;;;;;;18.77;2.83;;;;;;;4.88;100.00;99686.81;5047962;28;20025;-76
2022/02/21 08:07:27;;;;;;;22.70;3.40;;;;;;;4.80;100.00;99696.19;5025137;28;20554;-77
2022/02/21 08:09:53;;;;;;;25.02;3.20;;;;;;;4.77;100.00;99685.72;5037591;28;20029;-77
2022/02/21 08:12:18;;;;;;;25.08;5.75;;;;;;;4.68;100.00;99726.38;5045301;28;20384;-75
2022/02/21 08:14:43;;;;;;;22.38;3.80;;;;;;;4.58;100.00;99690.53;5041235;28;20485;-76
2022/02/21 08:17:09;;;;;;;27.55;3.83;;;;;;;4.43;100.00;99700.63;5048166;28;20184;-76
2022/02/21 08:19:34;;;;;;;21.90;3.17;;;;;;;4.40;100.00;99680.59;5027762;28;20059;-77
2022/02/21 08:21:59;;;;;;;14.95;3.13;;;;;;;4.44;100.00;99684.16;5047693;28;20041;-76
2022/02/21 08:24:25;;;;;;;29.30;3.85;;;;;;;4.41;100.00;99676.25;5039050;28;20033;-78
2022/02/21 08:26:50;;;;;;;27.77;3.88;;;;;;;4.34;100.00;99668.31;5022328;28;20033;-77
2022/02/21 08:29:16;;;;;;;25.33;3.70;;;;;;;4.36;100.00;99682.22;5048094;28;20373;-75
2022/02/21 08:31:44;;;;;;;15.77;3.33;;;;;;;4.29;100.00;99654.28;5037421;28;20033;-75
2022/02/21 08:34:09;;;;;;;25.67;3.78;;;;;;;4.33;100.00;99669.16;5032444;28;20034;-78
2022/02/21 08:36:35;;;;;;;23.13;4.13;;;;;;;4.39;100.00;99651.06;5018278;28;20035;-77
2022/02/21 08:39:00;;;;;;;18.33;3.70;;;;;;;4.47;100.00;99646.00;5032293;28;20033;-77
2022/02/21 08:41:25;;;;;;;29.38;4.10;;;;;;;4.52;100.00;99638.31;5052431;28;20495;-78
2022/02/21 08:43:51;;;;;;;27.20;3.13;;;;;;;4.64;100.00;99687.16;5041402;28;20025;-76
2022/02/21 08:46:16;;;;;;;23.75;3.75;;;;;;;4.81;100.00;99641.50;5027355;28;20110;-77
2022/02/21 08:48:42;;;;;;;22.00;3.25;;;;;;;4.70;100.00;99643.88;5055971;28;20114;-77
2022/02/21 08:51:07;;;;;;;18.17;3.35;;;;;;;4.70;100.00;99646.50;5062822;28;20025;-78
2022/02/21 08:53:33;;;;;;;25.95;4.43;;;;;;;4.79;100.00;99626.69;5058215;28;20028;-79
2022/02/21 08:55:58;;;;;;;21.73;4.00;;;;;;;4.86;100.00;99649.44;5050617;28;20421;-78
2022/02/21 08:58:25;;;;;;;30.50;3.97;;;;;;;4.93;100.00;99613.94;5067940;28;20457;-77
2022/02/21 09:00:50;;;;;;;26.98;4.25;;;;;;;4.90;100.00;99604.34;5069191;28;20044;-79
2022/02/21 09:03:15;;;;;;;38.90;4.70;;;;;;;4.90;100.00;99614.75;5056296;28;20400;-77
2022/02/21 09:05:41;;;;;;;41.05;5.63;;;;;;;4.92;100.00;99607.81;5046788;28;20032;-79
2022/02/21 09:08:07;;;;;;;28.75;3.20;;;;;;;4.98;100.00;99607.97;5063290;28;20029;-77
2022/02/21 09:10:33;;;;;;;29.58;4.05;;;;;;;5.01;100.00;99608.00;5063900;28;20043;-78
2022/02/21 09:13:00;;;;;;;29.38;4.07;;;;;;;5.06;100.00;99595.94;5037820;28;20477;-77
2022/02/21 09:15:25;;;;;;;24.80;3.42;;;;;;;5.07;100.00;99602.94;5073576;28;20037;-77
2022/02/21 09:17:51;;;;;;;31.63;3.55;;;;;;;5.16;100.00;99583.94;5058742;28;20029;-78
2022/02/21 09:20:17;;;;;;;28.42;4.68;;;;;;;5.12;100.00;99616.03;5057382;28;20387;-77
2022/02/21 09:22:44;;;;;;;30.45;4.45;;;;;;;5.20;100.00;99618.78;5057738;28;20115;-78
2022/02/21 09:25:10;;;;;;;22.05;3.00;;;;;;;5.12;100.00;99599.53;5058062;28;20024;-77
2022/02/21 09:27:36;;;;;;;24.10;4.85;;;;;;;5.06;100.00;99597.69;5049273;28;20085;-78
2022/02/21 09:30:04;;;;;;;33.25;3.70;;;;;;;5.03;100.00;99601.13;5063787;28;20025;-77
2022/02/21 09:32:30;;;;;;;29.27;5.28;;;;;;;4.95;100.00;99581.84;5066889;28;20035;-79
2022/02/21 09:34:56;;;;;;;28.05;5.80;;;;;;;4.90;100.00;99593.91;5037980;28;20480;-78
2022/02/21 09:37:22;;;;;;;34.53;6.03;;;;;;;4.89;100.00;99586.94;5049060;28;20388;-77
2022/02/21 09:39:47;;;;;;;25.80;3.50;;;;;;;5.00;100.00;99611.47;5066310;28;20029;-78
2022/02/21 09:42:13;;;;;;;28.17;4.57;;;;;;;5.12;100.00;99596.91;5067625;28;20036;-79
2022/02/21 09:44:38;;;;;;;44.92;4.32;;;;;;;5.17;100.00;99564.84;5057235;28;20086;-78
2022/02/21 09:47:06;;;;;;;33.42;4.72;;;;;;;5.32;100.00;99571.19;5061764;28;20399;-76
2022/02/21 09:49:32;;;;;;;30.35;4.93;;;;;;;5.39;100.00;99584.34;5048597;28;20032;-77
2022/02/21 09:51:58;;;;;;;41.88;4.63;;;;;;;5.50;100.00;99583.66;5071808;28;20025;-76
2022/02/21 09:54:24;;;;;;;37.85;4.22;;;;;;;5.61;100.00;99569.06;5062347;28;20024;-76
2022/02/21 09:56:51;;;;;;;30.63;4.38;;;;;;;5.72;100.00;99583.16;5064861;28;20494;-76
2022/02/21 09:59:17;;;;;;;33.58;4.85;;;;;;;5.87;100.00;99561.66;5034639;28;20043;-77
2022/02/21 10:01:44;;;;;;;31.45;4.90;;;;;;;5.90;100.00;99555.56;5058937;28;20060;-78
2022/02/21 10:04:11;;;;;;;37.45;5.47;;;;;;;5.89;100.00;99556.44;5066800;28;20533;-76
2022/02/21 10:06:36;;;;;;;33.70;5.20;;;;;;;6.01;100.00;99551.44;5072561;28;20036;-76
2022/02/21 10:09:12;;;;;;;45.22;6.57;;;;;;;5.97;100.00;99557.44;5061361;28;20036;-77
2022/02/21 10:11:48;;;;;;;26.60;4.07;;;;;;;5.91;100.00;99557.31;5060707;28;20024;-78
2022/02/21 10:14:23;;;;;;;33.97;6.22;;;;;;;5.80;100.00;99571.97;5045207;28;20060;-77
2022/02/21 10:16:56;;;;;;;26.05;4.80;;;;;;;5.61;100.00;99571.66;5056237;28;20033;-76
2022/02/21 10:19:25;;;;;;;45.63;5.32;;;;;;;5.51;100.00;99556.72;5058090;28;20422;-77
2022/02/21 10:22:10;;;;;;;29.90;5.97;;;;;;;5.50;100.00;99575.84;5066463;28;20080;-76
2022/02/21 10:24:41;;;;;;;37.50;5.90;;;;;;;5.61;100.00;99571.66;5061301;28;20029;-77
2022/02/21 10:27:21;;;;;;;34.20;5.35;;;;;;;5.72;100.00;99551.84;5060045;28;20025;-80
2022/02/21 10:29:52;;;;;;;28.40;5.15;;;;;;;5.77;100.00;99566.69;5055565;28;20037;-78
2022/02/21 10:32:20;;;;;;;30.02;6.28;;;;;;;5.81;100.00;99568.50;5070530;28;20163;-79
2022/02/21 10:34:47;;;;;;;30.25;4.82;;;;;;;5.82;100.00;99593.72;5067513;28;20438;-77
2022/02/21 10:37:18;;;;;;;41.97;5.38;;;;;;;5.83;100.00;99579.84;5055049;28;20028;-77
2022/02/21 10:39:43;;;;;;;27.42;3.92;;;;;;;5.90;100.00;99566.00;5064654;28;20048;-76
2022/02/21 10:42:09;;;;;;;31.98;4.85;;;;;;;5.96;100.00;99581.78;5060234;28;20021;-78
2022/02/21 10:44:40;;;;;;;31.17;4.72;;;;;;;5.94;100.00;99599.16;5065657;28;20085;-76
2022/02/21 10:47:14;;;;;;;29.38;5.03;;;;;;;5.94;100.00;99609.63;5047828;28;20044;-77
2022/02/21 10:50:03;;;;;;;20.10;4.75;;;;;;;5.98;100.00;99616.66;5064801;28;20047;-75
2022/02/21 10:52:38;;;;;;;27.88;5.82;;;;;;;5.95;100.00;99594.81;5062206;28;20388;-75
2022/02/21 10:55:05;;;;;;;35.63;4.03;;;;;;;5.97;100.00;99593.09;5052556;28;20031;-75
2022/02/21 10:57:39;;;;;;;33.33;5.10;;;;;;;5.96;100.00;99614.84;5060153;28;20055;-75
2022/02/21 11:00:05;;;;;;;;;;;;;;;6.13;100.00;99594.22;5070118;28;20055;-76
2022/02/21 11:02:31;;;;;;;30.17;4.15;;;;;;;6.23;100.00;99611.78;5061732;28;20391;-76
2022/02/21 11:04:57;;;;;;;30.25;5.72;;;;;;;6.35;100.00;99611.97;5073301;28;20064;-76
2022/02/21 11:07:23;;;;;;;33.63;4.13;;;;;;;6.54;100.00;99602.63;5046784;28;20032;-76
2022/02/21 11:09:49;;;;;;;29.63;4.53;;;;;;;6.71;100.00;99600.22;5073893;28;20032;-76
2022/02/21 11:12:17;;;;;;;34.30;4.93;;;;;;;6.78;100.00;99613.38;5053444;28;20021;-75
2022/02/21 11:14:43;;;;;;;23.00;3.65;;;;;;;6.75;100.00;99615.09;5063820;28;20480;-77
2022/02/21 11:17:12;;;;;;;43.70;6.63;;;;;;;6.60;100.00;99617.50;5044242;28;20036;-78
2022/02/21 11:19:38;;;;;;;44.75;6.07;;;;;;;6.50;100.00;99623.50;5062344;28;20043;-75
2022/02/21 11:22:03;;;;;;;39.28;5.50;;;;;;;6.49;100.00;99621.72;5061870;28;20012;-76
2022/02/21 11:24:35;;;;;;;27.08;4.60;;;;;;;6.55;100.00;99630.53;5057197;28;20021;-76
2022/02/21 11:27:35;;;;;;;38.83;5.90;;;;;;;6.69;100.00;99640.28;5052930;28;20070;-76